createdAt,value
2022-12-07T00:00:57.400Z,0
2022-12-07T00:03:57.479Z,0
2022-12-07T00:06:57.162Z,0
2022-12-07T00:09:57.539Z,0
2022-12-07T00:12:57.609Z,0
2022-12-07T00:15:56.943Z,0
2022-12-07T00:18:57.323Z,0
2022-12-07T00:22:02.190Z,0
2022-12-07T00:24:57.152Z,0
2022-12-07T00:27:57.264Z,0
2022-12-07T00:30:58.367Z,0
2022-12-07T00:33:57.493Z,0
2022-12-07T00:36:56.942Z,0
2022-12-07T00:39:57.436Z,0
2022-12-07T00:42:56.968Z,0
2022-12-07T00:45:56.977Z,0
2022-12-07T00:48:56.824Z,0
2022-12-07T00:51:56.987Z,0
2022-12-07T00:54:57.163Z,0
2022-12-07T00:57:57.363Z,0
2022-12-07T01:00:57.691Z,0
2022-12-07T01:03:57.799Z,0
2022-12-07T01:06:57.705Z,0
2022-12-07T01:09:57.459Z,0.3333333333333333
2022-12-07T01:12:57.738Z,0
2022-12-07T01:15:57.753Z,0
2022-12-07T01:18:57.420Z,0
2022-12-07T01:21:57.608Z,0
2022-12-07T01:24:57.000Z,0
2022-12-07T01:27:57.752Z,0
2022-12-07T01:30:57.423Z,0
2022-12-07T01:33:57.167Z,0
2022-12-07T01:36:58.006Z,0
2022-12-07T01:39:57.798Z,0
2022-12-07T01:42:57.252Z,0
2022-12-07T01:45:58.123Z,0
2022-12-07T01:48:57.555Z,0
2022-12-07T01:51:57.370Z,0
2022-12-07T01:54:57.456Z,0
2022-12-07T01:57:57.137Z,0
2022-12-07T02:00:57.246Z,0
2022-12-07T02:03:56.910Z,0
2022-12-07T02:06:57.156Z,0
2022-12-07T02:09:57.843Z,0
2022-12-07T02:12:57.218Z,0.3333333333333333
2022-12-07T02:15:57.315Z,0
2022-12-07T02:18:57.687Z,0.3333333333333333
2022-12-07T02:21:56.857Z,0
2022-12-07T02:24:57.521Z,0
2022-12-07T02:27:56.678Z,0
2022-12-07T02:30:57.717Z,0
2022-12-07T02:33:57.493Z,0
2022-12-07T02:36:57.183Z,0
2022-12-07T02:39:58.083Z,0
2022-12-07T02:42:57.388Z,0
2022-12-07T02:45:58.033Z,0
2022-12-07T02:48:57.096Z,0
2022-12-07T02:51:58.151Z,0
2022-12-07T02:54:57.528Z,0
2022-12-07T02:57:57.227Z,0
2022-12-07T03:00:57.853Z,0
2022-12-07T03:03:57.861Z,0
2022-12-07T03:06:57.323Z,0
2022-12-07T03:09:57.543Z,0
2022-12-07T03:12:57.848Z,0
2022-12-07T03:15:56.928Z,0
2022-12-07T03:18:57.125Z,0
2022-12-07T03:21:56.979Z,0
2022-12-07T03:24:57.633Z,0
2022-12-07T03:27:57.265Z,0
2022-12-07T03:30:56.798Z,0
2022-12-07T03:33:57.101Z,0
2022-12-07T03:36:57.924Z,0
2022-12-07T03:39:57.694Z,0
2022-12-07T03:42:57.515Z,0
2022-12-07T03:45:57.467Z,0
2022-12-07T03:48:56.893Z,0
2022-12-07T03:51:57.267Z,0
2022-12-07T03:54:57.479Z,0
2022-12-07T03:57:57.436Z,0
2022-12-07T04:00:57.265Z,0
2022-12-07T04:03:57.312Z,0
2022-12-07T04:06:57.061Z,0
2022-12-07T04:09:57.849Z,0.3333333333333333
2022-12-07T04:12:57.683Z,0
2022-12-07T04:15:57.871Z,0
2022-12-07T04:18:57.382Z,0
2022-12-07T04:21:57.986Z,0
2022-12-07T04:24:57.143Z,0
2022-12-07T04:27:57.684Z,0
2022-12-07T04:30:57.715Z,0
2022-12-07T04:33:57.901Z,0
2022-12-07T04:36:58.028Z,0
2022-12-07T04:39:56.865Z,0
2022-12-07T04:42:57.166Z,0
2022-12-07T04:45:58.271Z,0
2022-12-07T04:48:57.681Z,0
2022-12-07T04:51:57.215Z,0.3333333333333333
2022-12-07T04:54:57.385Z,0
2022-12-07T04:57:58.252Z,0
2022-12-07T05:00:58.282Z,0
2022-12-07T05:03:58.182Z,0
2022-12-07T05:06:57.963Z,0
2022-12-07T05:09:58.298Z,0
2022-12-07T05:12:57.555Z,0.3333333333333333
2022-12-07T05:15:58.274Z,0
2022-12-07T05:18:58.294Z,0
2022-12-07T05:21:57.532Z,0
2022-12-07T05:24:57.306Z,0
2022-12-07T05:27:57.416Z,0
2022-12-07T05:30:59.935Z,0
2022-12-07T05:33:57.663Z,0
2022-12-07T05:36:57.238Z,0
2022-12-07T05:39:57.914Z,0
2022-12-07T05:43:02.648Z,0
2022-12-07T05:45:57.640Z,0
2022-12-07T05:48:58.050Z,0
2022-12-07T05:51:57.861Z,0
2022-12-07T05:54:57.686Z,0
2022-12-07T05:57:58.404Z,0
2022-12-07T06:00:58.476Z,0
2022-12-07T06:03:57.931Z,0
2022-12-07T06:06:57.417Z,0
2022-12-07T06:09:58.676Z,0
2022-12-07T06:12:57.940Z,0.6666666666666666
2022-12-07T06:15:58.054Z,0
2022-12-07T06:18:57.424Z,0
2022-12-07T06:21:58.039Z,0
2022-12-07T06:24:57.345Z,0
2022-12-07T06:27:57.392Z,0
2022-12-07T06:30:57.474Z,0
2022-12-07T06:33:57.205Z,0
2022-12-07T06:36:57.957Z,0
2022-12-07T06:39:58.056Z,0
2022-12-07T06:42:58.078Z,0.3333333333333333
2022-12-07T06:45:57.114Z,0
2022-12-07T06:48:57.405Z,1.3333333333333333
2022-12-07T06:51:57.085Z,2
2022-12-07T06:54:57.144Z,5
2022-12-07T06:57:57.259Z,7.666666666666667
2022-12-07T07:00:58.405Z,10.333333333333334
2022-12-07T07:03:57.483Z,12
2022-12-07T07:07:00.162Z,14
2022-12-07T07:09:57.074Z,17
2022-12-07T07:12:57.932Z,20
2022-12-07T07:15:57.429Z,24.333333333333332
2022-12-07T07:18:57.710Z,30.666666666666668
2022-12-07T07:21:57.532Z,34.333333333333336
2022-12-07T07:24:57.723Z,38
2022-12-07T07:27:57.351Z,41
2022-12-07T07:30:57.282Z,46
2022-12-07T07:33:56.972Z,53.666666666666664
2022-12-07T07:36:57.719Z,58
2022-12-07T07:39:57.552Z,61
2022-12-07T07:42:57.077Z,63.666666666666664
2022-12-07T07:45:57.371Z,65
2022-12-07T07:48:57.148Z,70
2022-12-07T07:51:56.781Z,73
2022-12-07T07:54:57.967Z,78.33333333333333
2022-12-07T07:57:57.519Z,85.66666666666667
2022-12-07T08:00:57.926Z,93.66666666666667
2022-12-07T08:03:58.184Z,101
2022-12-07T08:06:57.203Z,111
2022-12-07T08:09:57.280Z,120.66666666666667
2022-12-07T08:12:56.869Z,134
2022-12-07T08:15:57.824Z,145.33333333333334
2022-12-07T08:18:56.754Z,156
2022-12-07T08:21:57.581Z,168.66666666666666
2022-12-07T08:24:56.877Z,173.33333333333334
2022-12-07T08:27:57.560Z,183
2022-12-07T08:30:57.331Z,185.33333333333334
2022-12-07T08:33:57.401Z,185.66666666666666
2022-12-07T08:36:56.888Z,186.66666666666666
2022-12-07T08:39:57.320Z,193.66666666666666
2022-12-07T08:42:57.637Z,196.66666666666666
2022-12-07T08:45:57.347Z,201.66666666666666
2022-12-07T08:48:57.299Z,201
2022-12-07T08:51:57.397Z,200.33333333333334
2022-12-07T08:54:57.768Z,193.33333333333334
2022-12-07T08:57:57.803Z,181
2022-12-07T09:00:57.417Z,184.66666666666666
2022-12-07T09:03:57.569Z,187
2022-12-07T09:06:57.286Z,192.66666666666666
2022-12-07T09:09:57.669Z,208
2022-12-07T09:12:57.754Z,221.33333333333334
2022-12-07T09:15:57.372Z,232.33333333333334
2022-12-07T09:18:57.690Z,226.33333333333334
2022-12-07T09:21:56.760Z,235.33333333333334
2022-12-07T09:24:57.107Z,256
2022-12-07T09:27:57.065Z,270.6666666666667
2022-12-07T09:31:22.678Z,290
2022-12-07T09:33:57.479Z,314.6666666666667
2022-12-07T09:36:57.588Z,330.6666666666667
2022-12-07T09:39:57.031Z,342.3333333333333
2022-12-07T09:42:57.610Z,363.6666666666667
2022-12-07T09:45:58.029Z,388.3333333333333
2022-12-07T09:48:57.239Z,393.6666666666667
2022-12-07T09:51:57.885Z,390
2022-12-07T09:54:56.868Z,392.6666666666667
2022-12-07T09:57:57.510Z,391.3333333333333
2022-12-07T10:00:57.524Z,383.6666666666667
2022-12-07T10:03:57.248Z,378.6666666666667
2022-12-07T10:06:57.967Z,383
2022-12-07T10:09:57.469Z,378.6666666666667
2022-12-07T10:12:58.095Z,374
2022-12-07T10:16:02.159Z,375.6666666666667
2022-12-07T10:18:57.140Z,384.6666666666667
2022-12-07T10:21:57.404Z,386.3333333333333
2022-12-07T10:24:58.013Z,381
2022-12-07T10:27:57.043Z,373
2022-12-07T10:30:57.185Z,374
2022-12-07T10:33:57.637Z,374.3333333333333
2022-12-07T10:36:57.647Z,382.3333333333333
2022-12-07T10:39:57.461Z,386.6666666666667
2022-12-07T10:42:58.034Z,392.3333333333333
2022-12-07T10:46:03.667Z,392
2022-12-07T10:48:57.518Z,405.3333333333333
2022-12-07T10:51:57.757Z,393.6666666666667
2022-12-07T10:54:56.887Z,407.6666666666667
2022-12-07T10:57:57.638Z,412
2022-12-07T11:00:57.616Z,405.3333333333333
2022-12-07T11:04:16.475Z,400
2022-12-07T11:06:57.504Z,397.3333333333333
2022-12-07T11:10:09.410Z,392.6666666666667
2022-12-07T11:12:58.259Z,405
2022-12-07T11:15:57.582Z,369
2022-12-07T11:18:58.175Z,380
2022-12-07T11:21:57.669Z,394
2022-12-07T11:24:56.949Z,339
2022-12-07T11:27:57.827Z,285.6666666666667
2022-12-07T11:30:57.247Z,267.3333333333333
2022-12-07T11:33:57.696Z,328
2022-12-07T11:36:57.458Z,339.3333333333333
2022-12-07T11:39:58.046Z,331
2022-12-07T11:42:58.127Z,333
2022-12-07T11:45:57.717Z,365
2022-12-07T11:48:57.570Z,387.6666666666667
2022-12-07T11:51:56.879Z,392
2022-12-07T11:54:56.957Z,413.6666666666667
2022-12-07T11:57:57.506Z,431
2022-12-07T12:00:57.211Z,416
2022-12-07T12:03:57.716Z,403.6666666666667
2022-12-07T12:06:57.748Z,407
2022-12-07T12:09:57.667Z,361.6666666666667
2022-12-07T12:15:57.530Z,335.3333333333333
2022-12-07T12:18:57.818Z,322.3333333333333
2022-12-07T12:21:58.437Z,307
2022-12-07T12:24:57.064Z,230.33333333333334
2022-12-07T12:27:57.019Z,216
2022-12-07T12:30:58.280Z,192.66666666666666
2022-12-07T12:33:58.277Z,231.33333333333334
2022-12-07T12:36:57.260Z,261.3333333333333
2022-12-07T12:39:57.801Z,184.66666666666666
2022-12-07T12:42:57.186Z,149.66666666666666
2022-12-07T12:45:57.503Z,150.66666666666666
2022-12-07T12:48:57.604Z,135.66666666666666
2022-12-07T12:51:57.367Z,120
2022-12-07T12:54:57.474Z,122.66666666666667
2022-12-07T12:57:57.651Z,128
2022-12-07T13:00:57.599Z,118.66666666666667
2022-12-07T13:03:57.797Z,129.33333333333334
2022-12-07T13:06:57.626Z,93
2022-12-07T13:09:58.057Z,93
2022-12-07T13:12:57.145Z,121
2022-12-07T13:15:57.889Z,140
2022-12-07T13:18:57.336Z,129.33333333333334
2022-12-07T13:21:57.232Z,103.33333333333333
2022-12-07T13:24:58.152Z,79.66666666666667
2022-12-07T13:27:56.580Z,81.33333333333333
2022-12-07T13:30:57.506Z,95.33333333333333
2022-12-07T13:33:57.572Z,92
2022-12-07T13:36:57.567Z,84.66666666666667
2022-12-07T13:39:58.383Z,97
2022-12-07T13:42:57.089Z,91
2022-12-07T13:45:58.203Z,92
2022-12-07T13:48:57.870Z,93
2022-12-07T13:51:57.858Z,89.33333333333333
2022-12-07T13:54:58.300Z,84
2022-12-07T13:57:57.112Z,77.66666666666667
2022-12-07T14:00:57.700Z,69
2022-12-07T14:03:57.444Z,66.66666666666667
2022-12-07T14:06:57.544Z,61
2022-12-07T14:09:57.839Z,59.333333333333336
2022-12-07T14:12:57.891Z,48
2022-12-07T14:15:58.294Z,44
2022-12-07T14:18:57.705Z,41
2022-12-07T14:21:57.435Z,39
2022-12-07T14:24:57.428Z,34.666666666666664
2022-12-07T14:27:57.513Z,40
2022-12-07T14:30:58.801Z,43
2022-12-07T14:33:57.557Z,39
2022-12-07T14:36:57.646Z,39
2022-12-07T14:39:57.784Z,41
2022-12-07T14:42:57.846Z,41.666666666666664
2022-12-07T14:45:58.200Z,36
2022-12-07T14:54:57.673Z,27
2022-12-07T14:57:58.001Z,22.666666666666668
2022-12-07T15:00:57.851Z,22
2022-12-07T15:03:57.958Z,16.666666666666668
2022-12-07T15:06:57.063Z,12
2022-12-07T15:09:58.072Z,12
2022-12-07T15:12:56.916Z,9
2022-12-07T15:15:57.429Z,8.333333333333334
2022-12-07T15:19:19.172Z,9
2022-12-07T15:21:58.209Z,8.666666666666666
2022-12-07T15:24:57.605Z,7
2022-12-07T15:27:57.508Z,6
2022-12-07T15:30:57.211Z,4.333333333333333
2022-12-07T15:33:57.458Z,3
2022-12-07T15:36:58.166Z,2
2022-12-07T15:40:00.489Z,1.3333333333333333
2022-12-07T15:42:57.462Z,1
2022-12-07T15:45:57.891Z,0
2022-12-07T15:48:58.453Z,0
2022-12-07T15:51:57.527Z,0
2022-12-07T15:54:57.300Z,0
2022-12-07T15:57:58.470Z,0
2022-12-07T16:00:58.436Z,0
2022-12-07T16:03:58.488Z,0
2022-12-07T16:06:57.837Z,0
2022-12-07T16:09:58.326Z,0
2022-12-07T16:12:57.166Z,0
2022-12-07T16:15:58.133Z,0
2022-12-07T16:18:57.996Z,0
2022-12-07T16:21:57.732Z,0
2022-12-07T16:24:57.094Z,0.3333333333333333
2022-12-07T16:27:57.460Z,0
2022-12-07T16:30:58.728Z,0
2022-12-07T16:33:57.716Z,0
2022-12-07T16:37:05.490Z,0.6666666666666666
2022-12-07T16:39:57.887Z,0.3333333333333333
2022-12-07T16:42:58.197Z,0
2022-12-07T16:45:58.493Z,0
2022-12-07T16:48:57.084Z,0
2022-12-07T16:52:18.749Z,0
2022-12-07T16:54:57.800Z,0
2022-12-07T16:57:58.237Z,0
2022-12-07T17:00:58.000Z,0
2022-12-07T17:03:57.661Z,0
2022-12-07T17:06:57.315Z,0
2022-12-07T17:09:57.254Z,0
2022-12-07T17:12:58.010Z,0
2022-12-07T17:15:57.334Z,0
2022-12-07T17:18:57.005Z,0
2022-12-07T17:21:57.222Z,0
2022-12-07T17:24:57.859Z,0
2022-12-07T17:27:56.578Z,0
2022-12-07T17:30:58.578Z,0
2022-12-07T17:33:57.338Z,0
2022-12-07T17:36:57.771Z,0
2022-12-07T17:39:57.935Z,0
2022-12-07T17:42:57.328Z,0
2022-12-07T17:45:58.125Z,0
2022-12-07T17:48:57.246Z,0
2022-12-07T17:51:57.106Z,0
2022-12-07T17:54:57.715Z,0
2022-12-07T17:57:57.670Z,0
2022-12-07T18:01:31.260Z,0
2022-12-07T18:03:57.048Z,0
2022-12-07T18:06:57.626Z,0
2022-12-07T18:09:57.273Z,0
2022-12-07T18:12:57.958Z,0
2022-12-07T18:15:57.436Z,0
2022-12-07T18:18:57.524Z,0
2022-12-07T18:21:56.936Z,0
2022-12-07T18:24:57.814Z,0
2022-12-07T18:27:57.586Z,0
2022-12-07T18:31:14.487Z,0.3333333333333333
2022-12-07T18:33:57.951Z,0
2022-12-07T18:36:58.089Z,0
2022-12-07T18:39:57.441Z,0
2022-12-07T18:42:57.932Z,0
2022-12-07T18:45:57.122Z,0
2022-12-07T18:48:57.347Z,0
2022-12-07T18:51:57.978Z,0
2022-12-07T18:54:57.009Z,0
2022-12-07T18:57:57.907Z,0
2022-12-07T19:00:57.158Z,0
2022-12-07T19:03:57.641Z,0.3333333333333333
2022-12-07T19:06:58.107Z,0
2022-12-07T19:09:57.389Z,0
2022-12-07T19:12:56.988Z,0
2022-12-07T19:15:57.841Z,0
2022-12-07T19:18:57.888Z,0
2022-12-07T19:21:57.345Z,0
2022-12-07T19:24:57.185Z,0
2022-12-07T19:27:57.464Z,0
2022-12-07T19:30:57.610Z,0
2022-12-07T19:33:57.253Z,0
2022-12-07T19:36:57.865Z,0
2022-12-07T19:39:57.351Z,0
2022-12-07T19:42:56.895Z,0
2022-12-07T19:45:57.497Z,0
2022-12-07T19:48:57.317Z,0
2022-12-07T19:51:57.138Z,0
2022-12-07T19:54:57.319Z,0
2022-12-07T19:57:56.608Z,0
2022-12-07T20:00:57.518Z,0
2022-12-07T20:03:58.059Z,0
2022-12-07T20:06:58.239Z,0
2022-12-07T20:09:57.643Z,0
2022-12-07T20:12:57.278Z,0.3333333333333333
2022-12-07T20:16:12.092Z,0
2022-12-07T20:18:58.175Z,0
2022-12-07T20:21:57.166Z,0
2022-12-07T20:24:57.864Z,0.3333333333333333
2022-12-07T20:27:57.848Z,0
2022-12-07T20:30:57.005Z,0
2022-12-07T20:33:57.563Z,0
2022-12-07T20:36:57.906Z,0
2022-12-07T20:39:57.870Z,0
2022-12-07T20:42:57.550Z,0
2022-12-07T20:45:57.847Z,0
2022-12-07T20:48:57.382Z,0
2022-12-07T20:51:57.154Z,0
2022-12-07T20:54:57.641Z,0
2022-12-07T20:57:57.308Z,0
2022-12-07T21:00:57.972Z,0
2022-12-07T21:03:57.983Z,0
2022-12-07T21:06:57.683Z,0
2022-12-07T21:09:58.410Z,0
2022-12-07T21:12:58.097Z,0
2022-12-07T21:15:57.273Z,0
2022-12-07T21:18:57.635Z,0.3333333333333333
2022-12-07T21:21:58.049Z,0
2022-12-07T21:24:57.238Z,0
2022-12-07T21:28:57.484Z,0
2022-12-07T21:31:13.644Z,0
2022-12-07T21:33:56.976Z,0
2022-12-07T21:36:57.665Z,0
2022-12-07T21:39:57.945Z,0
2022-12-07T21:42:57.438Z,0
2022-12-07T21:45:57.207Z,0
2022-12-07T21:48:57.492Z,0
2022-12-07T21:51:57.559Z,0
2022-12-07T21:54:57.585Z,0
2022-12-07T21:57:57.578Z,0
2022-12-07T22:00:57.823Z,0
2022-12-07T22:03:56.892Z,0
2022-12-07T22:06:58.044Z,0
2022-12-07T22:09:57.322Z,0
2022-12-07T22:12:57.171Z,0
2022-12-07T22:15:57.663Z,0
2022-12-07T22:18:58.092Z,0
2022-12-07T22:21:57.729Z,0
2022-12-07T22:24:57.484Z,0.3333333333333333
2022-12-07T22:27:56.947Z,0
2022-12-07T22:30:58.381Z,0
2022-12-07T22:33:57.598Z,0
2022-12-07T22:36:57.217Z,0
2022-12-07T22:39:57.786Z,0
2022-12-07T22:42:57.133Z,0.3333333333333333
2022-12-07T22:45:56.769Z,0
2022-12-07T22:48:57.664Z,0
2022-12-07T22:51:57.844Z,0
2022-12-07T22:54:57.771Z,0
2022-12-07T22:57:57.685Z,0
2022-12-07T23:00:58.403Z,0
2022-12-07T23:03:57.218Z,0
2022-12-07T23:06:57.625Z,0
2022-12-07T23:09:56.699Z,0
2022-12-07T23:12:57.152Z,0
2022-12-07T23:15:57.854Z,0
2022-12-07T23:18:57.143Z,0
2022-12-07T23:21:58.307Z,0
2022-12-07T23:24:57.480Z,0
2022-12-07T23:27:57.944Z,0.3333333333333333
2022-12-07T23:30:58.113Z,0
2022-12-07T23:33:57.243Z,0
2022-12-07T23:36:57.535Z,0
2022-12-07T23:39:57.428Z,0
2022-12-07T23:42:57.961Z,0
2022-12-07T23:45:57.031Z,0
2022-12-07T23:48:56.700Z,0
2022-12-07T23:51:57.455Z,0
2022-12-07T23:54:57.679Z,0
2022-12-07T23:57:56.753Z,0
